Time;durP1;ratioP1;P1;durP2;ratioP2;P2;SDS_P1;SDS_P2;PMS_P1;PMS_P2;Temp;Humidity;BMP_temperature;BMP_pressure;BME280_temperature;BME280_humidity;BME280_pressure;Samples;Min_cycle;Max_cycle;Signal;HPM_P1;HPM_P2
2022/07/10 00:00:43;;;;;;;7.20;0.90;;;15.10;99.90;;;;;;5080789;28;20072;-83
2022/07/10 00:03:09;;;;;;;8.90;1.10;;;13.80;99.90;;;;;;5061975;28;20614;-84
2022/07/10 00:05:46;;;;;;;9.80;1.25;;;14.80;99.90;;;;;;5056595;28;20041;-83
2022/07/10 00:08:12;;;;;;;7.25;1.40;;;15.00;99.90;;;;;;5063994;28;20053;-83
2022/07/10 00:10:49;;;;;;;9.13;1.10;;;14.70;99.90;;;;;;5068582;28;20394;-83
2022/07/10 00:13:15;;;;;;;6.18;1.00;;;15.00;99.90;;;;;;5061038;28;20056;-83
2022/07/10 00:15:49;;;;;;;12.07;1.65;;;14.90;99.90;;;;;;5055530;28;20407;-83
2022/07/10 00:18:15;;;;;;;6.30;1.00;;;14.00;99.90;;;;;;5091388;28;20102;-83
2022/07/10 00:20:44;;;;;;;7.63;1.27;;;13.80;99.90;;;;;;5054286;28;20595;-83
2022/07/10 00:23:09;;;;;;;8.80;1.55;;;14.70;99.90;;;;;;5063070;28;20127;-82
2022/07/10 00:25:35;;;;;;;5.25;1.20;;;13.60;99.90;;;;;;5061502;27;20532;-83
2022/07/10 00:28:04;;;;;;;9.10;1.02;;;13.80;99.90;;;;;;5051182;28;20044;-83
2022/07/10 00:30:54;;;;;;;5.75;0.98;;;14.10;99.90;;;;;;5067759;28;20522;-83
2022/07/10 00:33:30;;;;;;;6.57;1.00;;;13.70;99.90;;;;;;5061168;28;20040;-83
2022/07/10 00:35:56;;;;;;;5.30;0.82;;;13.80;99.90;;;;;;5071691;28;20048;-83
2022/07/10 00:38:22;;;;;;;6.57;0.98;;;14.40;99.90;;;;;;5079590;28;20127;-84
2022/07/10 00:40:47;;;;;;;9.40;1.08;;;13.70;99.90;;;;;;5066728;28;20057;-84
2022/07/10 00:46:01;;;;;;;6.32;1.00;;;13.90;99.90;;;;;;5074766;28;20048;-84
2022/07/10 00:48:27;;;;;;;7.90;1.40;;;14.30;99.90;;;;;;5063327;28;20387;-83
2022/07/10 00:50:53;;;;;;;8.25;1.08;;;13.50;99.90;;;;;;5059284;28;20162;-83
2022/07/10 00:53:19;;;;;;;11.52;1.17;;;13.50;99.90;;;;;;5066865;28;20055;-84
2022/07/10 00:55:44;;;;;;;7.47;0.93;;;13.30;99.90;;;;;;5097352;27;20052;-83
2022/07/10 00:58:12;;;;;;;4.97;1.20;;;14.50;99.90;;;;;;5096542;27;20051;-84
2022/07/10 01:00:39;;;;;;;6.68;1.00;;;14.50;99.90;;;;;;5069138;28;20160;-84
2022/07/10 01:03:05;;;;;;;10.43;1.00;;;13.70;99.90;;;;;;5062697;28;20040;-84
2022/07/10 01:05:36;;;;;;;6.78;1.05;;;13.70;99.90;;;;;;5062921;28;20132;-83
2022/07/10 01:08:12;;;;;;;;;;;;;;;;;;;;;
2022/07/10 01:10:55;;;;;;;7.30;0.75;;;13.70;99.90;;;;;;5064780;28;20048;-84
2022/07/10 01:13:21;;;;;;;5.80;0.80;;;13.70;99.90;;;;;;5074555;28;20514;-84
2022/07/10 01:15:48;;;;;;;5.78;1.17;;;13.00;99.90;;;;;;5067673;28;20044;-84
2022/07/10 01:18:16;;;;;;;5.82;1.33;;;14.30;99.90;;;;;;5065566;28;20492;-84
2022/07/10 01:20:45;;;;;;;10.27;1.15;;;13.30;99.90;;;;;;5098921;28;20083;-84
2022/07/10 01:23:10;;;;;;;6.90;1.00;;;13.70;99.90;;;;;;5065945;28;20049;-84
2022/07/10 01:25:36;;;;;;;8.30;1.00;;;14.40;99.90;;;;;;5094693;27;20040;-84
2022/07/10 01:28:02;;;;;;;9.38;1.20;;;14.20;99.90;;;;;;5065900;28;20044;-84
2022/07/10 01:30:43;;;;;;;7.75;1.45;;;13.40;99.90;;;;;;5098419;28;20045;-84
2022/07/10 01:33:09;;;;;;;10.20;1.48;;;14.20;99.90;;;;;;5064441;28;20090;-83
2022/07/10 01:35:34;;;;;;;7.95;1.33;;;13.40;99.90;;;;;;5066805;28;20069;-84
2022/07/10 01:38:00;;;;;;;11.38;1.77;;;13.50;99.90;;;;;;5063400;28;20431;-84
2022/07/10 01:40:26;;;;;;;7.43;1.00;;;14.20;99.90;;;;;;5060633;28;20047;-83
2022/07/10 01:42:51;;;;;;;7.13;1.38;;;13.50;99.90;;;;;;5067791;28;20052;-84
2022/07/10 01:48:05;;;;;;;9.65;1.38;;;14.20;99.90;;;;;;5063421;28;20059;-84
2022/07/10 01:50:31;;;;;;;6.03;1.48;;;13.50;99.90;;;;;;5067920;28;20431;-83
2022/07/10 01:52:57;;;;;;;5.93;0.90;;;13.50;99.90;;;;;;5097463;27;20049;-84
2022/07/10 01:55:49;;;;;;;4.40;0.88;;;13.50;99.90;;;;;;5071897;28;20055;-84
2022/07/10 01:58:14;;;;;;;7.47;1.20;;;13.00;99.90;;;;;;5057299;28;20125;-83
2022/07/10 02:00:40;;;;;;;7.20;1.48;;;13.50;99.90;;;;;;5068333;28;20045;-83
2022/07/10 02:06:01;;;;;;;11.23;1.10;;;13.90;99.90;;;;;;5092994;28;20045;-84
2022/07/10 02:08:27;;;;;;;6.10;1.13;;;13.90;99.90;;;;;;5067326;28;20048;-84
2022/07/10 02:10:53;;;;;;;11.20;1.10;;;13.80;99.90;;;;;;5071280;28;20101;-84
2022/07/10 02:13:37;;;;;;;7.75;1.55;;;14.10;99.90;;;;;;5062119;28;20036;-84
2022/07/10 02:16:17;;;;;;;4.13;0.95;;;14.30;99.90;;;;;;5075792;28;20052;-84
2022/07/10 02:18:49;;;;;;;4.75;0.85;;;14.20;99.90;;;;;;5103533;28;20573;-84
2022/07/10 02:21:33;;;;;;;6.97;1.45;;;13.40;99.90;;;;;;5077117;28;20040;-84
2022/07/10 02:23:58;;;;;;;7.53;0.90;;;13.30;99.90;;;;;;5070455;28;20040;-84
2022/07/10 02:26:36;;;;;;;5.95;0.90;;;13.90;99.90;;;;;;5063155;28;20450;-84
2022/07/10 02:29:07;;;;;;;6.40;1.00;;;12.20;99.90;;;;;;5073624;28;20040;-84
2022/07/10 02:31:42;;;;;;;7.68;1.00;;;12.80;99.90;;;;;;5061144;28;20090;-84
2022/07/10 02:34:11;;;;;;;7.88;0.98;;;14.10;99.90;;;;;;5065451;28;20040;-84
2022/07/10 02:36:38;;;;;;;4.22;0.68;;;13.20;99.90;;;;;;5076129;28;20044;-84
2022/07/10 02:39:07;;;;;;;9.27;1.05;;;13.10;99.90;;;;;;5065228;28;20098;-84
2022/07/10 02:41:35;;;;;;;6.20;1.00;;;12.60;99.90;;;;;;5065653;28;20041;-84
2022/07/10 02:44:02;;;;;;;6.45;1.10;;;13.30;99.90;;;;;;5070288;28;20052;-84
2022/07/10 02:46:30;;;;;;;8.25;0.85;;;13.10;99.90;;;;;;5060473;28;20072;-84
2022/07/10 02:48:56;;;;;;;10.05;0.80;;;13.70;99.90;;;;;;5047663;28;20037;-83
2022/07/10 02:51:22;;;;;;;4.47;0.70;;;13.10;99.90;;;;;;5063735;28;20107;-83
2022/07/10 02:53:48;;;;;;;7.32;0.90;;;12.60;99.90;;;;;;5074944;28;20066;-83
2022/07/10 02:56:13;;;;;;;5.35;1.02;;;13.60;99.90;;;;;;5068333;28;20048;-84
2022/07/10 02:58:39;;;;;;;8.43;0.90;;;12.90;99.90;;;;;;5070120;28;20037;-84
2022/07/10 03:01:07;;;;;;;5.50;0.82;;;14.00;99.90;;;;;;5053959;28;20143;-83
2022/07/10 03:03:36;;;;;;;5.60;0.98;;;13.50;99.90;;;;;;5070532;28;20503;-84
2022/07/10 03:06:02;;;;;;;8.25;0.98;;;13.00;99.90;;;;;;5072259;28;20037;-84
2022/07/10 03:08:27;;;;;;;7.25;0.98;;;13.00;99.90;;;;;;5068052;28;20099;-84
2022/07/10 03:10:53;;;;;;;11.20;1.15;;;13.00;99.90;;;;;;5072819;28;20083;-84
2022/07/10 03:13:19;;;;;;;7.13;1.00;;;13.00;99.90;;;;;;5070071;28;20049;-84
2022/07/10 03:15:45;;;;;;;6.88;1.60;;;13.90;99.90;;;;;;5068670;28;20068;-84
2022/07/10 03:18:10;;;;;;;10.05;1.02;;;12.60;99.90;;;;;;5097046;27;20506;-84
2022/07/10 03:20:36;;;;;;;6.45;0.85;;;13.00;99.90;;;;;;5066483;28;20083;-84
2022/07/10 03:23:02;;;;;;;5.30;0.80;;;13.90;99.90;;;;;;5072034;28;20376;-84
2022/07/10 03:25:27;;;;;;;7.32;0.98;;;13.70;99.90;;;;;;5097684;28;20516;-83
2022/07/10 03:27:53;;;;;;;5.40;0.80;;;13.10;99.90;;;;;;5076940;28;20045;-84
2022/07/10 03:30:24;;;;;;;6.82;0.93;;;12.90;99.90;;;;;;5069146;28;20041;-84
2022/07/10 03:32:50;;;;;;;6.50;0.98;;;14.10;99.90;;;;;;5067906;28;20055;-84
2022/07/10 03:35:15;;;;;;;6.47;0.80;;;13.10;99.90;;;;;;5062865;28;20496;-83
2022/07/10 03:37:43;;;;;;;9.05;1.10;;;13.40;99.90;;;;;;5071517;28;20049;-84
2022/07/10 03:40:12;;;;;;;8.20;1.50;;;13.20;99.90;;;;;;5073271;28;20040;-84
2022/07/10 03:42:40;;;;;;;6.82;1.30;;;13.90;99.90;;;;;;5062156;28;20444;-83
2022/07/10 03:45:06;;;;;;;3.97;0.70;;;13.20;99.90;;;;;;5071378;28;20045;-84
2022/07/10 03:47:32;;;;;;;8.73;1.17;;;13.30;99.90;;;;;;5105817;28;20114;-84
2022/07/10 03:49:58;;;;;;;6.57;0.90;;;13.30;99.90;;;;;;5065903;28;20037;-84
2022/07/10 03:52:24;;;;;;;6.65;0.80;;;14.10;99.90;;;;;;5070908;28;20057;-84
2022/07/10 03:54:49;;;;;;;10.57;0.90;;;13.40;99.90;;;;;;5073137;28;20040;-84
2022/07/10 04:00:03;;;;;;;9.48;1.17;;;13.60;99.90;;;;;;5063013;28;20076;-84
2022/07/10 04:02:48;;;;;;;8.52;1.10;;;13.40;99.90;;;;;;5077479;28;20487;-83
2022/07/10 04:05:17;;;;;;;8.05;0.85;;;13.60;99.90;;;;;;5054382;28;20079;-84
2022/07/10 04:07:45;;;;;;;5.72;0.90;;;13.50;99.90;;;;;;5070990;28;20040;-84
2022/07/10 04:10:13;;;;;;;10.20;1.05;;;13.00;99.90;;;;;;5063958;28;20159;-84
2022/07/10 04:12:39;;;;;;;6.90;0.88;;;13.60;99.90;;;;;;5073967;28;20037;-84
2022/07/10 04:15:05;;;;;;;5.22;0.95;;;14.10;99.90;;;;;;5095622;27;20463;-84
2022/07/10 04:17:37;;;;;;;3.90;1.00;;;13.60;99.90;;;;;;5064654;28;20039;-84
2022/07/10 04:20:06;;;;;;;4.97;0.93;;;14.50;99.90;;;;;;5076723;28;20052;-84
2022/07/10 04:22:32;;;;;;;4.85;0.80;;;13.60;99.90;;;;;;5067573;28;20049;-84
2022/07/10 04:24:58;;;;;;;7.95;1.13;;;12.40;99.90;;;;;;5073564;28;20052;-84
2022/07/10 04:27:23;;;;;;;4.97;1.30;;;14.60;99.90;;;;;;5066944;28;20050;-84
2022/07/10 04:29:52;;;;;;;6.85;0.98;;;13.70;99.90;;;;;;5070867;28;20435;-84
2022/07/10 04:32:18;;;;;;;7.53;1.52;;;13.70;99.90;;;;;;5069738;28;20065;-84
2022/07/10 04:34:44;;;;;;;9.07;1.05;;;14.10;99.90;;;;;;5068450;28;20434;-84
2022/07/10 04:37:25;;;;;;;4.55;0.80;;;14.60;99.90;;;;;;5077980;28;20045;-84
2022/07/10 04:39:50;;;;;;;6.88;1.45;;;14.20;99.90;;;;;;5065453;28;20405;-84
2022/07/10 04:42:16;;;;;;;8.68;0.93;;;14.60;99.90;;;;;;5098892;28;20110;-84
2022/07/10 04:44:42;;;;;;;8.48;0.88;;;14.80;99.90;;;;;;5064743;28;20476;-84
2022/07/10 04:47:11;;;;;;;7.55;1.20;;;14.60;99.90;;;;;;5059740;28;20508;-84
2022/07/10 04:49:44;;;;;;;7.28;1.10;;;14.20;99.90;;;;;;5061308;28;20032;-84
2022/07/10 04:52:09;;;;;;;9.02;1.20;;;14.00;99.90;;;;;;5069765;28;20051;-84
2022/07/10 04:54:35;;;;;;;9.30;1.63;;;14.70;99.90;;;;;;5061467;28;20040;-84
2022/07/10 04:57:01;;;;;;;5.60;1.30;;;14.80;99.90;;;;;;5064548;28;20071;-84
2022/07/10 04:59:26;;;;;;;15.45;1.63;;;14.00;99.90;;;;;;5062406;28;20049;-84
2022/07/10 05:02:09;;;;;;;8.63;1.20;;;13.70;99.90;;;;;;5062584;28;20044;-84
2022/07/10 05:04:35;;;;;;;7.93;1.70;;;14.50;99.90;;;;;;5065023;28;20124;-84
2022/07/10 05:07:01;;;;;;;9.95;1.20;;;14.70;99.90;;;;;;5094103;28;20131;-84
2022/07/10 05:09:26;;;;;;;10.32;1.50;;;14.50;99.90;;;;;;5065574;28;20040;-84
2022/07/10 05:11:52;;;;;;;7.05;1.20;;;15.10;99.90;;;;;;5070314;28;20049;-83
2022/07/10 05:14:18;;;;;;;6.22;1.73;;;15.00;99.90;;;;;;5061296;28;20391;-82
2022/07/10 05:16:43;;;;;;;9.20;1.58;;;14.60;99.90;;;;;;5064793;28;20119;-82
2022/07/10 05:19:09;;;;;;;9.10;1.30;;;14.70;99.90;;;;;;5064732;28;20056;-81
2022/07/10 05:21:34;;;;;;;7.88;1.40;;;14.80;99.90;;;;;;5059761;28;20488;-80
2022/07/10 05:24:00;;;;;;;5.65;1.20;;;14.80;99.90;;;;;;5059556;28;20120;-87
2022/07/10 05:26:25;;;;;;;7.55;1.25;;;14.90;99.90;;;;;;5065316;28;20052;-86
2022/07/10 05:28:51;;;;;;;8.20;1.40;;;14.90;99.90;;;;;;5063280;28;20392;-88
2022/07/10 05:31:16;;;;;;;9.25;1.27;;;15.00;99.90;;;;;;5094652;28;20040;-87
2022/07/10 05:33:43;;;;;;;7.82;1.30;;;15.10;99.90;;;;;;5054743;28;20044;-88
2022/07/10 05:36:09;;;;;;;8.50;1.48;;;15.50;99.90;;;;;;5068943;28;20044;-88
2022/07/10 05:38:34;;;;;;;4.50;0.98;;;15.20;99.90;;;;;;5058894;28;20045;-87
2022/07/10 05:41:00;;;;;;;7.90;1.27;;;15.20;99.90;;;;;;5067083;28;20052;-82
2022/07/10 05:43:25;;;;;;;9.35;0.95;;;15.20;99.90;;;;;;5075745;28;20096;-86
2022/07/10 05:45:51;;;;;;;7.50;1.85;;;15.40;99.90;;;;;;5070890;28;20040;-86
2022/07/10 05:48:17;;;;;;;9.93;1.40;;;16.00;99.90;;;;;;5064829;28;20047;-87
2022/07/10 05:50:42;;;;;;;10.35;1.70;;;15.30;99.90;;;;;;5104727;27;20059;-87
2022/07/10 05:53:08;;;;;;;8.05;1.48;;;15.40;99.90;;;;;;5071412;28;20806;-87
2022/07/10 05:55:33;;;;;;;7.47;0.90;;;15.50;99.90;;;;;;5066392;28;20028;-86
2022/07/10 05:57:59;;;;;;;13.30;1.33;;;15.50;99.90;;;;;;5061994;28;20080;-86
2022/07/10 06:00:25;;;;;;;9.63;1.23;;;16.10;99.90;;;;;;5071812;28;20044;-87
2022/07/10 06:02:51;;;;;;;6.97;1.20;;;15.60;99.90;;;;;;5073760;28;20380;-86
2022/07/10 06:05:16;;;;;;;8.57;1.85;;;15.60;99.90;;;;;;5103350;28;20052;-85
2022/07/10 06:07:42;;;;;;;9.65;1.40;;;15.60;99.90;;;;;;5067753;28;20044;-85
2022/07/10 06:10:08;;;;;;;8.57;1.27;;;15.80;99.90;;;;;;5063848;28;20239;-87
2022/07/10 06:12:33;;;;;;;14.88;1.80;;;15.70;99.90;;;;;;5073117;28;20036;-86
2022/07/10 06:14:59;;;;;;;11.93;1.30;;;15.70;99.90;;;;;;5064876;28;20036;-87
2022/07/10 06:17:25;;;;;;;5.10;1.35;;;15.50;99.90;;;;;;5071241;28;20040;-87
2022/07/10 06:19:50;;;;;;;9.30;1.50;;;15.60;99.90;;;;;;5068670;28;20048;-88
2022/07/10 06:25:44;;;;;;;10.20;1.92;;;15.10;99.90;;;;;;5072500;28;20044;-90
2022/07/10 06:28:10;;;;;;;8.48;1.63;;;15.50;99.90;;;;;;5052265;28;20536;-86
2022/07/10 06:30:35;;;;;;;12.48;1.73;;;16.40;99.90;;;;;;5067065;28;20115;-88
2022/07/10 06:33:01;;;;;;;11.05;1.63;;;16.00;99.90;;;;;;5069587;28;20033;-87
2022/07/10 06:35:27;;;;;;;10.48;1.20;;;15.40;99.90;;;;;;5078452;28;20037;-89
2022/07/10 06:37:52;;;;;;;8.18;1.63;;;15.30;99.90;;;;;;5065423;28;20041;-88
2022/07/10 06:40:20;;;;;;;13.02;1.80;;;15.30;99.90;;;;;;5064130;28;20049;-90
2022/07/10 06:42:45;;;;;;;8.88;1.23;;;15.30;99.90;;;;;;5072385;28;20132;-87
2022/07/10 06:45:11;;;;;;;6.63;1.10;;;15.30;99.90;;;;;;5070558;28;20144;-87
2022/07/10 06:50:26;;;;;;;17.55;1.70;;;15.60;99.90;;;;;;5069861;28;20048;-83
2022/07/10 06:53:02;;;;;;;13.75;1.40;;;15.60;99.90;;;;;;5065535;28;20370;-83
2022/07/10 06:55:28;;;;;;;6.32;1.23;;;15.60;99.90;;;;;;5060914;28;20051;-85
2022/07/10 06:57:55;;;;;;;8.05;1.38;;;15.60;99.90;;;;;;5076336;28;20040;-82
2022/07/10 07:00:21;;;;;;;9.68;1.38;;;15.50;99.90;;;;;;5064750;28;20048;-85
2022/07/10 07:02:47;;;;;;;8.88;1.60;;;15.50;99.90;;;;;;5071405;28;20518;-83
2022/07/10 07:05:13;;;;;;;9.50;1.67;;;16.10;99.90;;;;;;5066409;28;20083;-87
2022/07/10 07:07:39;;;;;;;8.52;1.50;;;15.40;99.90;;;;;;5063407;28;20045;-85
2022/07/10 07:10:05;;;;;;;9.73;1.92;;;15.50;99.90;;;;;;5067748;28;20098;-80
2022/07/10 07:12:31;;;;;;;6.07;1.23;;;15.40;99.90;;;;;;5080184;28;20052;-81
2022/07/10 07:15:07;;;;;;;9.13;1.80;;;16.10;99.90;;;;;;5092926;28;20089;-81
2022/07/10 07:17:46;;;;;;;10.15;1.70;;;15.40;99.90;;;;;;5071133;28;20050;-81
2022/07/10 07:23:10;;;;;;;5.40;1.30;;;15.60;99.90;;;;;;5070088;28;20056;-81
2022/07/10 07:25:36;;;;;;;;;;;16.30;99.90;;;;;;5070166;28;20812;-81
2022/07/10 07:28:22;;;;;;;6.65;1.27;;;16.30;99.90;;;;;;5071722;28;19924;-81
2022/07/10 07:30:48;;;;;;;5.63;0.90;;;16.40;99.90;;;;;;5055927;28;20507;-81
2022/07/10 07:33:14;;;;;;;7.45;0.85;;;16.40;99.90;;;;;;5052174;28;20048;-81
2022/07/10 07:35:40;;;;;;;4.63;1.00;;;16.00;99.90;;;;;;5052116;28;20132;-81
2022/07/10 07:38:05;;;;;;;6.45;1.10;;;16.80;99.90;;;;;;5053888;28;20091;-81
2022/07/10 07:40:32;;;;;;;9.27;1.30;;;16.00;99.90;;;;;;5068374;28;20656;-81
2022/07/10 07:42:58;;;;;;;4.82;0.90;;;16.50;99.90;;;;;;5070663;28;20449;-80
2022/07/10 07:45:24;;;;;;;5.70;1.10;;;16.70;99.90;;;;;;5062067;28;20168;-80
2022/07/10 07:47:53;;;;;;;7.32;0.82;;;15.80;99.90;;;;;;5050349;28;20041;-80
2022/07/10 07:50:27;;;;;;;4.03;0.85;;;15.90;99.90;;;;;;5084406;28;20524;-80
2022/07/10 07:52:53;;;;;;;4.82;1.05;;;15.70;99.90;;;;;;5051485;28;20396;-80
2022/07/10 07:55:20;;;;;;;3.08;0.98;;;15.70;99.90;;;;;;5068246;28;20492;-80
2022/07/10 07:57:47;;;;;;;5.45;1.23;;;16.50;99.90;;;;;;5072256;28;20127;-80
2022/07/10 08:00:14;;;;;;;5.95;1.00;;;16.50;99.90;;;;;;5061675;28;20504;-80
2022/07/10 08:02:40;;;;;;;6.18;0.93;;;15.70;99.90;;;;;;5051081;28;20049;-80
2022/07/10 08:05:07;;;;;;;9.55;1.30;;;16.50;99.90;;;;;;5049366;28;20045;-80
2022/07/10 08:07:39;;;;;;;5.47;1.05;;;15.80;99.90;;;;;;5068074;28;20131;-80
2022/07/10 08:10:08;;;;;;;5.88;1.00;;;15.90;99.90;;;;;;5066562;28;20045;-82
2022/07/10 08:12:34;;;;;;;6.43;1.00;;;16.00;99.90;;;;;;5049890;28;20049;-81
2022/07/10 08:15:00;;;;;;;7.50;1.58;;;16.10;99.90;;;;;;5057971;28;20044;-82
2022/07/10 08:17:26;;;;;;;4.53;0.70;;;16.80;99.90;;;;;;5071635;28;20105;-82
2022/07/10 08:19:52;;;;;;;4.45;0.75;;;17.00;99.90;;;;;;5061386;28;20443;-81
2022/07/10 08:22:18;;;;;;;4.72;0.88;;;16.30;99.90;;;;;;5051502;28;20394;-81
2022/07/10 08:24:43;;;;;;;4.43;0.70;;;17.10;99.90;;;;;;5050621;28;20049;-81
2022/07/10 08:27:09;;;;;;;4.55;0.70;;;15.90;99.90;;;;;;5048889;28;20052;-81
2022/07/10 08:29:35;;;;;;;4.03;1.23;;;16.40;99.90;;;;;;5052814;28;20060;-81
2022/07/10 08:32:00;;;;;;;3.92;0.60;;;16.60;99.90;;;;;;5070854;28;20136;-81
2022/07/10 08:34:27;;;;;;;8.65;1.00;;;17.00;99.90;;;;;;5057066;28;20052;-81
2022/07/10 08:36:53;;;;;;;6.93;1.15;;;17.20;99.90;;;;;;5053449;28;20115;-81
2022/07/10 08:39:21;;;;;;;3.28;0.50;;;16.80;99.90;;;;;;5065256;28;20136;-81
2022/07/10 08:41:50;;;;;;;2.92;0.77;;;16.40;99.90;;;;;;5070598;28;20135;-81
2022/07/10 08:44:17;;;;;;;2.40;0.65;;;17.30;99.90;;;;;;5069978;28;20442;-81
2022/07/10 08:46:43;;;;;;;4.93;1.10;;;17.20;99.90;;;;;;5064607;28;20059;-81
2022/07/10 08:49:16;;;;;;;6.47;0.75;;;17.20;99.90;;;;;;5048686;28;20128;-81
2022/07/10 08:51:52;;;;;;;7.60;0.90;;;17.30;99.90;;;;;;5049952;28;20053;-81
2022/07/10 08:54:18;;;;;;;6.60;0.90;;;17.10;99.90;;;;;;5052916;28;20437;-81
2022/07/10 08:56:44;;;;;;;6.25;0.90;;;17.40;99.90;;;;;;5050588;28;20456;-81
2022/07/10 08:59:12;;;;;;;4.90;0.70;;;17.20;99.90;;;;;;5049289;28;20052;-81
2022/07/10 09:01:38;;;;;;;5.40;0.65;;;17.90;99.90;;;;;;5050091;28;20088;-81
2022/07/10 09:04:04;;;;;;;5.65;0.80;;;17.20;99.90;;;;;;5050521;28;20076;-81
2022/07/10 09:06:29;;;;;;;4.40;0.70;;;17.00;99.90;;;;;;5061690;28;20455;-81
2022/07/10 09:09:04;;;;;;;3.92;0.77;;;16.90;99.90;;;;;;5069305;28;20036;-81
2022/07/10 09:11:31;;;;;;;4.65;0.80;;;16.90;99.90;;;;;;5066012;28;20138;-81
2022/07/10 09:13:59;;;;;;;4.22;0.63;;;17.20;99.90;;;;;;5064093;28;20043;-81
2022/07/10 09:16:26;;;;;;;2.92;0.45;;;16.80;99.90;;;;;;5055835;28;20523;-81
2022/07/10 09:18:53;;;;;;;3.90;0.63;;;17.50;99.90;;;;;;5049147;28;20128;-81
2022/07/10 09:21:19;;;;;;;7.10;0.70;;;16.80;99.90;;;;;;5050261;28;20900;-81
2022/07/10 09:23:45;;;;;;;2.60;0.55;;;17.00;99.90;;;;;;5049862;28;20064;-81
2022/07/10 09:26:11;;;;;;;2.72;0.50;;;17.30;99.90;;;;;;5049194;28;20408;-81
2022/07/10 09:28:37;;;;;;;5.78;0.82;;;16.90;99.90;;;;;;5051633;28;20087;-81
2022/07/10 09:31:03;;;;;;;3.60;0.50;;;17.50;99.90;;;;;;5049718;28;20469;-81
2022/07/10 09:33:31;;;;;;;4.50;0.75;;;17.00;99.90;;;;;;5050958;28;20041;-81
2022/07/10 09:36:12;;;;;;;7.13;0.70;;;17.60;99.90;;;;;;5050200;28;20072;-81
2022/07/10 09:38:44;;;;;;;3.38;0.90;;;17.70;99.90;;;;;;5048438;28;20404;-81
2022/07/10 09:41:18;;;;;;;7.90;1.08;;;16.90;99.90;;;;;;5070228;28;20045;-81
2022/07/10 09:43:48;;;;;;;;;;;16.80;99.90;;;;;;5058311;28;20060;-80
2022/07/10 09:46:14;;;;;;;6.45;1.00;;;16.80;99.90;;;;;;5050546;28;19921;-81
2022/07/10 09:48:41;;;;;;;3.70;0.80;;;17.50;99.90;;;;;;5048958;28;20075;-80
2022/07/10 09:51:11;;;;;;;3.78;1.00;;;17.00;99.90;;;;;;5049227;28;20101;-82
2022/07/10 09:53:43;;;;;;;3.25;0.63;;;17.30;99.90;;;;;;5050577;28;20090;-81
2022/07/10 09:56:11;;;;;;;2.55;0.80;;;17.00;99.90;;;;;;5048611;28;20049;-82
2022/07/10 09:58:37;;;;;;;2.90;0.80;;;16.60;99.90;;;;;;5068610;28;20125;-81
2022/07/10 10:01:04;;;;;;;4.72;0.90;;;15.80;99.90;;;;;;5056161;28;20144;-82
2022/07/10 10:03:37;;;;;;;3.35;0.70;;;16.30;99.90;;;;;;5050187;28;20041;-81
2022/07/10 10:06:16;;;;;;;2.25;0.70;;;16.30;99.90;;;;;;5047953;28;20045;-81
2022/07/10 10:09:05;;;;;;;2.30;0.85;;;16.30;99.90;;;;;;5049931;28;20087;-81
2022/07/10 10:11:35;;;;;;;2.40;0.60;;;16.40;99.90;;;;;;5052482;28;20048;-80
2022/07/10 10:14:02;;;;;;;4.15;0.95;;;17.00;99.90;;;;;;5050936;28;20471;-80
2022/07/10 10:16:29;;;;;;;1.55;0.50;;;17.00;99.90;;;;;;5050070;28;20041;-81
2022/07/10 10:21:39;;;;;;;;;;;16.60;99.90;;;;;;5058260;28;20128;-81
2022/07/10 10:24:06;;;;;;;2.67;0.70;;;16.70;99.90;;;;;;5066641;28;20027;-81
2022/07/10 10:26:32;;;;;;;3.05;0.80;;;16.70;99.90;;;;;;5104088;28;20043;-82
2022/07/10 10:29:00;;;;;;;1.83;0.60;;;17.30;99.90;;;;;;5072201;28;20341;-82
2022/07/10 10:31:30;;;;;;;4.82;0.70;;;16.70;99.90;;;;;;5073536;28;20056;-81
2022/07/10 10:33:57;;;;;;;2.55;0.90;;;17.50;99.90;;;;;;5071129;28;20059;-80
2022/07/10 10:36:44;;;;;;;3.53;0.70;;;17.20;99.90;;;;;;5072498;28;20537;-80
2022/07/10 10:39:13;;;;;;;4.00;0.80;;;17.50;99.90;;;;;;5071524;28;20052;-80
2022/07/10 10:41:45;;;;;;;5.55;1.27;;;17.00;99.90;;;;;;5072076;28;20055;-80
2022/07/10 10:44:16;;;;;;;5.53;1.45;;;17.80;99.90;;;;;;5073073;28;20123;-80
2022/07/10 10:46:50;;;;;;;4.93;1.50;;;17.20;99.90;;;;;;5072386;28;20048;-81
2022/07/10 10:49:23;;;;;;;4.97;1.20;;;17.60;99.90;;;;;;5071094;28;20135;-81
2022/07/10 10:52:16;;;;;;;5.80;1.60;;;17.20;99.90;;;;;;5071023;28;20040;-80
2022/07/10 10:55:00;;;;;;;5.30;1.55;;;17.00;99.90;;;;;;5052421;28;20060;-80
2022/07/10 10:57:31;;;;;;;6.72;1.33;;;17.30;99.90;;;;;;5103628;28;20090;-80
2022/07/10 10:59:59;;;;;;;4.38;1.13;;;16.50;99.90;;;;;;5057899;28;20049;-80
2022/07/10 11:02:25;;;;;;;5.68;1.58;;;17.50;99.90;;;;;;5050955;28;20481;-81
2022/07/10 11:04:52;;;;;;;7.47;1.35;;;17.10;99.90;;;;;;5051422;28;20072;-81
2022/07/10 11:07:56;;;;;;;4.43;1.23;;;17.00;99.90;;;;;;5052760;28;20072;-80
2022/07/10 11:10:43;;;;;;;7.20;1.60;;;17.10;99.90;;;;;;5055994;28;20082;-81
2022/07/10 11:13:11;;;;;;;5.47;1.38;;;17.30;99.90;;;;;;5072207;28;20127;-81
2022/07/10 11:15:39;;;;;;;6.38;1.40;;;18.00;99.90;;;;;;5056220;28;20053;-82
2022/07/10 11:18:19;;;;;;;6.22;1.33;;;17.70;99.90;;;;;;5052386;28;20041;-81
2022/07/10 11:20:54;;;;;;;6.13;1.13;;;17.20;99.90;;;;;;5051212;28;20125;-81
2022/07/10 11:23:41;;;;;;;4.72;1.15;;;17.10;99.90;;;;;;5050829;28;20078;-82
2022/07/10 11:26:11;;;;;;;6.60;1.13;;;17.10;99.90;;;;;;5089245;28;20061;-81
2022/07/10 11:28:47;;;;;;;7.18;1.58;;;17.80;99.90;;;;;;5052436;28;20044;-81
2022/07/10 11:31:12;;;;;;;6.22;1.52;;;17.70;99.90;;;;;;5051633;28;20480;-81
2022/07/10 11:33:54;;;;;;;5.50;1.42;;;17.60;99.90;;;;;;5052531;28;20044;-81
2022/07/10 11:36:34;;;;;;;5.88;1.30;;;17.70;99.90;;;;;;5050335;28;20118;-81
2022/07/10 11:39:05;;;;;;;8.65;1.60;;;17.70;99.90;;;;;;5062487;28;20048;-81
2022/07/10 11:41:32;;;;;;;2.53;0.80;;;18.60;99.90;;;;;;5071741;28;20154;-81
2022/07/10 11:44:06;;;;;;;5.45;1.20;;;18.10;99.90;;;;;;5070022;28;20051;-82
2022/07/10 11:46:33;;;;;;;;;;;17.20;99.90;;;;;;5097791;28;20670;-81
2022/07/10 11:49:04;;;;;;;6.38;1.50;;;18.40;99.90;;;;;;5061036;28;19943;-81
2022/07/10 11:51:30;;;;;;;6.18;1.55;;;18.40;99.90;;;;;;5070112;28;20036;-81
2022/07/10 11:54:04;;;;;;;4.80;1.40;;;17.50;99.90;;;;;;5070342;28;20139;-80
2022/07/10 11:56:34;;;;;;;3.63;1.37;;;17.30;99.90;;;;;;5070606;28;20510;-81
2022/07/10 11:59:13;;;;;;;4.50;1.42;;;17.30;99.90;;;;;;5069382;28;20090;-81
2022/07/10 12:01:47;;;;;;;5.90;1.40;;;17.30;99.90;;;;;;5056685;28;20400;-81
2022/07/10 12:04:15;;;;;;;4.70;1.40;;;17.50;99.90;;;;;;5050278;28;20051;-81
2022/07/10 12:06:45;;;;;;;5.25;1.58;;;17.50;99.90;;;;;;5051948;28;20052;-81
2022/07/10 12:09:16;;;;;;;5.80;1.23;;;17.70;99.90;;;;;;5060069;28;20056;-81
2022/07/10 12:11:44;;;;;;;6.18;1.20;;;18.00;99.90;;;;;;5050816;28;20086;-81
2022/07/10 12:14:16;;;;;;;4.35;1.10;;;17.70;99.90;;;;;;5051072;28;20124;-81
2022/07/10 12:16:43;;;;;;;9.05;1.42;;;17.70;99.90;;;;;;5051363;28;20373;-81
2022/07/10 12:19:11;;;;;;;6.75;1.83;;;18.20;99.90;;;;;;5068753;28;20048;-81
2022/07/10 12:21:38;;;;;;;5.22;1.40;;;17.90;99.90;;;;;;5061362;28;20041;-81
2022/07/10 12:24:04;;;;;;;5.50;1.90;;;18.20;99.90;;;;;;5051168;28;20464;-81
2022/07/10 12:26:44;;;;;;;5.50;1.30;;;17.50;99.90;;;;;;5050811;28;20135;-81
2022/07/10 12:29:25;;;;;;;5.00;1.35;;;17.50;99.90;;;;;;5049401;28;20053;-81
2022/07/10 12:31:55;;;;;;;5.40;1.55;;;17.40;99.90;;;;;;5051119;28;20068;-81
2022/07/10 12:34:57;;;;;;;4.47;1.20;;;17.30;99.90;;;;;;5055715;28;20041;-81
2022/07/10 12:37:23;;;;;;;9.98;1.75;;;18.00;99.90;;;;;;5051016;28;20057;-81
2022/07/10 12:39:54;;;;;;;8.85;1.30;;;17.70;99.90;;;;;;5050046;28;20076;-81
2022/07/10 12:42:36;;;;;;;6.53;2.03;;;17.50;99.90;;;;;;5049987;28;20049;-80
2022/07/10 12:45:13;;;;;;;4.88;1.40;;;18.20;99.90;;;;;;5051152;28;20072;-81
2022/07/10 12:47:50;;;;;;;5.00;1.40;;;17.90;99.90;;;;;;5050327;28;20056;-81
2022/07/10 12:50:17;;;;;;;4.50;1.30;;;18.10;99.90;;;;;;5101788;28;20055;-81
2022/07/10 12:52:43;;;;;;;5.72;1.80;;;18.50;99.90;;;;;;5069815;28;20182;-80
2022/07/10 12:55:10;;;;;;;6.68;1.40;;;18.60;99.90;;;;;;5102267;28;20056;-81
2022/07/10 12:57:56;;;;;;;5.05;1.77;;;18.20;99.90;;;;;;5069404;28;20055;-81
2022/07/10 13:00:26;;;;;;;6.45;1.65;;;18.00;99.90;;;;;;5101537;27;20049;-81
2022/07/10 13:03:01;;;;;;;7.47;1.90;;;17.70;99.90;;;;;;5050015;28;20059;-81
2022/07/10 13:05:40;;;;;;;6.53;1.83;;;18.40;99.90;;;;;;5070370;28;20048;-80
2022/07/10 13:08:15;;;;;;;5.95;1.45;;;17.60;99.90;;;;;;5055215;28;20132;-81
2022/07/10 13:10:48;;;;;;;4.50;1.63;;;18.20;99.90;;;;;;5050939;28;20049;-80
2022/07/10 13:13:14;;;;;;;4.32;1.40;;;18.00;99.90;;;;;;5049152;28;20040;-81
2022/07/10 13:15:56;;;;;;;2.72;1.27;;;18.10;99.90;;;;;;5048396;28;20107;-81
2022/07/10 13:18:25;;;;;;;5.18;1.45;;;17.30;99.90;;;;;;5056895;28;20044;-81
2022/07/10 13:20:52;;;;;;;8.93;1.60;;;17.20;99.90;;;;;;5069053;28;20067;-81